Time,TemperatureF,DewpointF,PressureIn,WindDirection,WindDirectionDegrees,WindSpeedMPH,WindSpeedGustMPH,Humidity,HourlyPrecipIn,Conditions,Clouds,dailyrainin,SoftwareType,DateUTC
2013-06-01 00:02:00,58.0,-99.9,-100.00,SSW,213,2.0,5.0,-999,-99.99,,,-99.99,,2013-06-01 07:02:00,
2013-06-01 00:11:00,58.0,-99.9,-100.00,SSW,213,2.0,5.0,-999,-99.99,,,-99.99,,2013-06-01 07:11:00,
2013-06-01 01:02:00,55.0,-99.9,-100.00,NW,312,2.0,5.0,-999,-99.99,,,-99.99,,2013-06-01 08:02:00,
2013-06-01 01:11:00,55.0,-99.9,-100.00,NW,312,2.0,5.0,-999,-99.99,,,-99.99,,2013-06-01 08:11:00,
2013-06-01 01:52:00,55.0,-99.9,-100.00,NW,311,3.0,9.0,-999,-99.99,,,-99.99,,2013-06-01 08:52:00,
2013-06-01 02:02:00,55.0,-99.9,-100.00,NW,311,3.0,9.0,-999,-99.99,,,-99.99,,2013-06-01 09:02:00,
2013-06-01 02:12:00,55.0,-99.9,-100.00,NW,311,3.0,9.0,-999,-99.99,,,-99.99,,2013-06-01 09:12:00,
2013-06-01 02:53:00,55.0,-99.9,-100.00,NNW,341,2.0,6.0,-999,-99.99,,,-99.99,,2013-06-01 09:53:00,
2013-06-01 03:02:00,55.0,-99.9,-100.00,NNW,341,2.0,6.0,-999,-99.99,,,-99.99,,2013-06-01 10:02:00,
2013-06-01 03:13:00,55.0,-99.9,-100.00,NNW,341,2.0,6.0,-999,-99.99,,,-99.99,,2013-06-01 10:13:00,
2013-06-01 03:53:00,53.0,-99.9,-100.00,West,262,1.0,1.0,-999,-99.99,,,-99.99,,2013-06-01 10:53:00,
2013-06-01 04:03:00,53.0,-99.9,-100.00,West,262,1.0,1.0,-999,-99.99,,,-99.99,,2013-06-01 11:03:00,
2013-06-01 04:11:00,53.0,-99.9,-100.00,West,262,1.0,1.0,-999,-99.99,,,-99.99,,2013-06-01 11:11:00,
2013-06-01 05:01:00,55.0,-99.9,-100.00,North,352,1.0,6.0,-999,-99.99,,,-99.99,,2013-06-01 12:01:00,
2013-06-01 05:12:00,55.0,-99.9,-100.00,North,352,1.0,6.0,-999,-99.99,,,-99.99,,2013-06-01 12:12:00,
2013-06-01 05:52:00,52.0,-99.9,-100.00,South,176,1.0,3.0,-999,-99.99,,,-99.99,,2013-06-01 12:52:00,
2013-06-01 06:02:00,52.0,-99.9,-100.00,South,176,1.0,3.0,-999,-99.99,,,-99.99,,2013-06-01 13:02:00,
2013-06-01 06:12:00,52.0,-99.9,-100.00,South,176,1.0,3.0,-999,-99.99,,,-99.99,,2013-06-01 13:12:00,
2013-06-01 07:02:00,52.0,-99.9,-100.00,WNW,282,1.0,3.0,-999,-99.99,,,-99.99,,2013-06-01 14:02:00,
2013-06-01 07:11:00,52.0,-99.9,-100.00,WNW,282,1.0,3.0,-999,-99.99,,,-99.99,,2013-06-01 14:11:00,
2013-06-01 08:02:00,56.0,-99.9,-100.00,NNE,14,1.0,2.0,-999,-99.99,,,-99.99,,2013-06-01 15:02:00,
2013-06-01 08:12:00,56.0,-99.9,-100.00,NNE,14,1.0,2.0,-999,-99.99,,,-99.99,,2013-06-01 15:12:00,
2013-06-01 08:54:00,60.0,-99.9,-100.00,NNE,20,1.0,3.0,-999,-99.99,,,-99.99,,2013-06-01 15:54:00,
2013-06-01 09:03:00,60.0,-99.9,-100.00,NNE,20,1.0,3.0,-999,-99.99,,,-99.99,,2013-06-01 16:03:00,
2013-06-01 09:13:00,60.0,-99.9,-100.00,NNE,20,1.0,3.0,-999,-99.99,,,-99.99,,2013-06-01 16:13:00,
2013-06-01 10:02:00,62.0,-99.9,-100.00,North,8,3.0,7.0,-999,-99.99,,,-99.99,,2013-06-01 17:02:00,
2013-06-01 10:12:00,62.0,-99.9,-100.00,North,8,3.0,7.0,-999,-99.99,,,-99.99,,2013-06-01 17:12:00,
2013-06-01 10:52:00,65.0,-99.9,-100.00,North,355,2.0,7.0,-999,-99.99,,,-99.99,,2013-06-01 17:52:00,
2013-06-01 11:02:00,65.0,-99.9,-100.00,North,355,2.0,7.0,-999,-99.99,,,-99.99,,2013-06-01 18:02:00,
2013-06-01 11:12:00,65.0,-99.9,-100.00,North,355,2.0,7.0,-999,-99.99,,,-99.99,,2013-06-01 18:12:00,
2013-06-01 11:52:00,68.0,-99.9,-100.00,ENE,57,2.0,6.0,-999,-99.99,,,-99.99,,2013-06-01 18:52:00,
2013-06-01 12:02:00,68.0,-99.9,-100.00,ENE,57,2.0,6.0,-999,-99.99,,,-99.99,,2013-06-01 19:02:00,
2013-06-01 12:12:00,68.0,-99.9,-100.00,ENE,57,2.0,6.0,-999,-99.99,,,-99.99,,2013-06-01 19:12:00,
2013-06-01 13:02:00,73.0,-99.9,-100.00,ESE,122,5.0,14.0,-999,-99.99,,,-99.99,,2013-06-01 20:02:00,
2013-06-01 13:12:00,73.0,-99.9,-100.00,ESE,122,5.0,14.0,-999,-99.99,,,-99.99,,2013-06-01 20:12:00,
2013-06-01 13:52:00,75.0,-99.9,-100.00,WSW,249,3.0,12.0,-999,-99.99,,,-99.99,,2013-06-01 20:52:00,
2013-06-01 14:02:00,75.0,-99.9,-100.00,WSW,249,3.0,12.0,-999,-99.99,,,-99.99,,2013-06-01 21:02:00,
2013-06-01 14:12:00,75.0,-99.9,-100.00,WSW,249,3.0,12.0,-999,-99.99,,,-99.99,,2013-06-01 21:12:00,
2013-06-01 15:03:00,77.0,-99.9,-100.00,SSE,149,3.0,10.0,-999,-99.99,,,-99.99,,2013-06-01 22:03:00,
2013-06-01 15:12:00,77.0,-99.9,-100.00,SSE,149,3.0,10.0,-999,-99.99,,,-99.99,,2013-06-01 22:12:00,
2013-06-01 15:53:00,78.0,-99.9,-100.00,North,359,5.0,12.0,-999,-99.99,,,-99.99,,2013-06-01 22:53:00,
2013-06-01 16:02:00,78.0,-99.9,-100.00,North,359,5.0,12.0,-999,-99.99,,,-99.99,,2013-06-01 23:02:00,
2013-06-01 16:12:00,78.0,-99.9,-100.00,North,359,5.0,12.0,-999,-99.99,,,-99.99,,2013-06-01 23:12:00,
2013-06-01 16:52:00,78.0,-99.9,-100.00,WSW,248,3.0,8.0,-999,-99.99,,,-99.99,,2013-06-01 23:52:00,
2013-06-01 17:02:00,78.0,-99.9,-100.00,WSW,248,3.0,8.0,-999,-99.99,,,-99.99,,2013-06-02 00:02:00,
2013-06-01 17:11:00,78.0,-99.9,-100.00,WSW,248,3.0,8.0,-999,-99.99,,,-99.99,,2013-06-02 00:11:00,
2013-06-01 17:52:00,80.0,-99.9,-100.00,SW,230,2.0,9.0,-999,-99.99,,,-99.99,,2013-06-02 00:52:00,
2013-06-01 18:02:00,80.0,-99.9,-100.00,SW,230,2.0,9.0,-999,-99.99,,,-99.99,,2013-06-02 01:02:00,
2013-06-01 18:11:00,80.0,-99.9,-100.00,SW,230,2.0,9.0,-999,-99.99,,,-99.99,,2013-06-02 01:11:00,
2013-06-01 19:02:00,80.0,-99.9,-100.00,ESE,118,2.0,8.0,-999,-99.99,,,-99.99,,2013-06-02 02:02:00,
2013-06-01 19:12:00,80.0,-99.9,-100.00,ESE,118,2.0,8.0,-999,-99.99,,,-99.99,,2013-06-02 02:12:00,
2013-06-01 20:02:00,78.0,-99.9,-100.00,NE,36,1.0,2.0,-999,-99.99,,,-99.99,,2013-06-02 03:02:00,
2013-06-01 20:11:00,78.0,-99.9,-100.00,NE,36,1.0,2.0,-999,-99.99,,,-99.99,,2013-06-02 03:11:00,
2013-06-01 20:53:00,79.0,-99.9,-100.00,North,3,2.0,5.0,-999,-99.99,,,-99.99,,2013-06-02 03:53:00,
2013-06-01 21:03:00,79.0,-99.9,-100.00,North,3,2.0,5.0,-999,-99.99,,,-99.99,,2013-06-02 04:03:00,
2013-06-01 21:13:00,79.0,-99.9,-100.00,North,3,2.0,5.0,-999,-99.99,,,-99.99,,2013-06-02 04:13:00,
2013-06-01 22:03:00,70.0,-99.9,-100.00,NNW,330,10.0,18.0,-999,-99.99,,,-99.99,,2013-06-02 05:03:00,
2013-06-01 22:12:00,70.0,-99.9,-100.00,NNW,330,10.0,18.0,-999,-99.99,,,-99.99,,2013-06-02 05:12:00,
2013-06-01 22:52:00,69.0,-99.9,-100.00,NW,318,13.0,21.0,-999,-99.99,,,-99.99,,2013-06-02 05:52:00,
2013-06-01 23:01:00,69.0,-99.9,-100.00,NW,318,13.0,21.0,-999,-99.99,,,-99.99,,2013-06-02 06:01:00,
2013-06-01 23:12:00,69.0,-99.9,-100.00,NW,318,13.0,21.0,-999,-99.99,,,-99.99,,2013-06-02 06:12:00,
2013-06-01 23:52:00,68.0,-99.9,-100.00,NW,311,14.0,24.0,-999,-99.99,,,-99.99,,2013-06-02 06:52:00,